createdAt,value
2023-04-18T00:04:54.501Z,11.80
2023-04-18T00:09:56.463Z,11.80
2023-04-18T00:14:58.791Z,11.80
2023-04-18T00:20:02.373Z,11.70
2023-04-18T00:25:04.524Z,11.80
2023-04-18T00:30:07.238Z,11.70
2023-04-18T00:35:15.401Z,11.70
2023-04-18T00:40:17.323Z,11.70
2023-04-18T00:45:19.279Z,11.70
2023-04-18T00:50:21.392Z,11.70
2023-04-18T00:55:24.157Z,11.70
2023-04-18T01:00:26.101Z,11.60
2023-04-18T01:05:28.030Z,11.60
2023-04-18T01:10:30.680Z,11.60
2023-04-18T01:15:32.523Z,11.60
2023-04-18T01:20:36.701Z,11.60
2023-04-18T01:25:39.157Z,11.60
2023-04-18T01:30:41.268Z,11.60
2023-04-18T01:35:46.316Z,11.60
2023-04-18T01:40:50.614Z,11.60
2023-04-18T01:45:52.427Z,11.50
2023-04-18T01:50:54.250Z,11.50
2023-04-18T01:55:57.704Z,11.50
2023-04-18T02:00:59.636Z,11.50
2023-04-18T02:06:02.805Z,11.40
2023-04-18T02:11:05.268Z,11.50
2023-04-18T02:16:12.672Z,11.40
2023-04-18T02:21:14.549Z,11.40
2023-04-18T02:26:16.476Z,11.40
2023-04-18T02:31:18.367Z,11.40
2023-04-18T02:36:20.208Z,12.20
2023-04-18T02:41:22.213Z,11.40
2023-04-18T02:46:24.199Z,11.40
2023-04-18T02:51:26.783Z,11.40
2023-04-18T02:56:28.603Z,11.30
2023-04-18T03:01:30.515Z,11.30
2023-04-18T03:06:32.623Z,11.30
2023-04-18T03:11:34.506Z,11.30
2023-04-18T03:16:36.437Z,11.30
2023-04-18T03:21:38.369Z,11.30
2023-04-18T03:26:40.217Z,11.30
2023-04-18T03:31:42.174Z,11.30
2023-04-18T03:36:46.561Z,11.20
2023-04-18T03:41:49.895Z,11.20
2023-04-18T03:46:51.746Z,11.30
2023-04-18T03:51:53.618Z,11.20
2023-04-18T03:56:55.793Z,11.20
2023-04-18T04:01:57.769Z,11.20
2023-04-18T04:07:00.211Z,11.20
2023-04-18T04:12:03.273Z,12.00
2023-04-18T04:17:05.631Z,11.20
2023-04-18T04:22:07.508Z,11.20
2023-04-18T04:27:10.488Z,11.10
2023-04-18T04:32:12.988Z,11.10
2023-04-18T04:37:15.143Z,11.10
2023-04-18T04:42:17.555Z,11.20
2023-04-18T04:47:19.734Z,11.10
2023-04-18T04:52:21.591Z,11.10
2023-04-18T04:57:23.401Z,11.10
2023-04-18T05:02:25.520Z,11.10
2023-04-18T05:07:27.704Z,11.10
2023-04-18T05:12:29.894Z,11.10
2023-04-18T05:17:31.738Z,11.00
2023-04-18T05:22:33.617Z,11.10
2023-04-18T05:27:35.536Z,11.10
2023-04-18T05:32:39.056Z,11.10
2023-04-18T05:37:41.505Z,11.20
2023-04-18T05:42:43.396Z,11.20
2023-04-18T05:47:45.299Z,11.30
2023-04-18T05:52:47.149Z,11.30
2023-04-18T05:57:48.969Z,11.40
2023-04-18T06:02:56.501Z,11.50
2023-04-18T06:07:58.519Z,11.60
2023-04-18T06:13:00.372Z,11.70
2023-04-18T06:18:02.292Z,11.70
2023-04-18T06:23:04.180Z,11.70
2023-04-18T06:28:06.078Z,11.90
2023-04-18T06:33:10.474Z,12.00
2023-04-18T06:38:12.553Z,12.00
2023-04-18T06:43:14.550Z,12.00
2023-04-18T06:48:16.592Z,12.00
2023-04-18T06:53:18.451Z,12.00
2023-04-18T06:58:20.269Z,11.90
2023-04-18T07:03:23.392Z,11.80
2023-04-18T07:08:25.426Z,11.80
2023-04-18T07:13:27.298Z,11.70
2023-04-18T07:18:37.480Z,11.70
2023-04-18T07:23:40.355Z,11.70
2023-04-18T07:28:42.272Z,11.80
2023-04-18T07:33:44.091Z,11.80
2023-04-18T07:38:46.786Z,11.90
2023-04-18T07:43:48.607Z,12.00
2023-04-18T07:48:50.898Z,12.20
2023-04-18T07:53:52.981Z,12.50
2023-04-18T07:58:54.833Z,12.70
2023-04-18T08:03:57.972Z,12.70
2023-04-18T08:09:04.199Z,12.80
2023-04-18T08:14:06.100Z,12.70
2023-04-18T08:19:07.927Z,12.60
2023-04-18T08:24:09.774Z,12.50
2023-04-18T08:29:11.765Z,12.40
2023-04-18T08:34:13.808Z,12.60
2023-04-18T08:39:16.127Z,13.00
2023-04-18T08:44:18.070Z,13.20
2023-04-18T08:49:22.621Z,13.30
2023-04-18T08:54:25.576Z,13.20
2023-04-18T08:59:30.509Z,13.20
2023-04-18T09:04:37.476Z,13.30
2023-04-18T09:09:46.807Z,13.50
2023-04-18T09:14:54.284Z,13.80
2023-04-18T09:19:56.738Z,14.20
2023-04-18T09:24:58.573Z,14.40
2023-04-18T09:30:00.839Z,14.40
2023-04-18T09:35:05.381Z,14.30
2023-04-18T09:40:17.052Z,14.20
2023-04-18T09:45:18.890Z,14.20
2023-04-18T09:50:20.905Z,14.30
2023-04-18T09:55:22.795Z,14.30
2023-04-18T10:00:26.648Z,14.50
2023-04-18T10:05:32.352Z,14.60
2023-04-18T10:10:34.274Z,14.70
2023-04-18T10:15:36.295Z,14.90
2023-04-18T10:20:41.225Z,15.00
2023-04-18T10:25:48.409Z,15.20
2023-04-18T10:31:03.784Z,15.30
2023-04-18T10:36:15.038Z,15.40
2023-04-18T10:41:28.339Z,15.40
2023-04-18T10:46:32.848Z,15.50
2023-04-18T10:51:36.032Z,15.40
2023-04-18T10:56:37.962Z,15.40
2023-04-18T11:01:42.002Z,15.40
2023-04-18T11:06:51.175Z,15.50
2023-04-18T11:12:12.153Z,16.00
2023-04-18T11:17:27.276Z,16.30
2023-04-18T11:22:29.784Z,16.60
2023-04-18T11:27:31.659Z,16.70
2023-04-18T11:32:34.388Z,16.80
2023-04-18T11:37:37.841Z,16.90
2023-04-18T11:42:40.692Z,16.60
2023-04-18T11:47:43.397Z,16.70
2023-04-18T11:52:50.217Z,16.50
2023-04-18T11:57:56.938Z,16.50
2023-04-18T12:02:59.932Z,16.40
2023-04-18T12:08:09.130Z,16.20
2023-04-18T12:13:11.039Z,16.10
2023-04-18T12:18:15.247Z,15.90
2023-04-18T12:23:29.920Z,15.90
2023-04-18T12:28:32.396Z,15.80
2023-04-18T12:33:36.663Z,15.80
2023-04-18T12:38:38.535Z,15.80
2023-04-18T12:43:40.424Z,15.80
2023-04-18T12:48:42.512Z,15.70
2023-04-18T12:53:44.393Z,15.60
2023-04-18T12:58:46.299Z,15.60
2023-04-18T13:03:56.505Z,15.50
2023-04-18T13:09:02.048Z,15.50
2023-04-18T13:14:03.920Z,15.40
2023-04-18T13:19:08.641Z,15.30
2023-04-18T13:24:10.560Z,15.30
2023-04-18T13:29:12.672Z,15.10
2023-04-18T13:34:14.667Z,14.90
2023-04-18T13:39:16.823Z,14.90
2023-04-18T13:44:19.514Z,14.90
2023-04-18T13:49:21.387Z,14.90
2023-04-18T13:54:27.312Z,14.80
2023-04-18T13:59:31.370Z,14.80
2023-04-18T14:04:36.485Z,14.70
2023-04-18T14:09:38.552Z,14.60
2023-04-18T14:14:40.594Z,14.60
2023-04-18T14:19:42.526Z,14.60
2023-04-18T14:24:44.356Z,14.50
2023-04-18T14:29:46.470Z,14.30
2023-04-18T14:34:48.385Z,14.30
2023-04-18T14:39:50.567Z,14.20
2023-04-18T14:44:52.434Z,14.10
2023-04-18T14:49:54.929Z,14.10
2023-04-18T14:54:57.100Z,14.10
2023-04-18T14:59:59.004Z,14.10
2023-04-18T15:05:00.950Z,13.90
2023-04-18T15:10:02.805Z,13.80
2023-04-18T15:15:06.775Z,13.70
2023-04-18T15:20:09.485Z,13.50
2023-04-18T15:25:16.299Z,13.50
2023-04-18T15:30:18.493Z,13.40
2023-04-18T15:35:20.475Z,13.30
2023-04-18T15:40:22.293Z,13.30
2023-04-18T15:45:24.359Z,13.30
2023-04-18T15:50:26.256Z,13.30
2023-04-18T15:55:28.098Z,13.20
2023-04-18T16:00:30.161Z,13.10
2023-04-18T16:05:32.001Z,13.10
2023-04-18T16:10:33.912Z,13.00
2023-04-18T16:15:41.451Z,12.90
2023-04-18T16:20:43.447Z,12.90
2023-04-18T16:25:54.750Z,12.80
2023-04-18T16:30:56.771Z,12.80
2023-04-18T16:36:00.092Z,12.80
2023-04-18T16:41:01.946Z,12.70
2023-04-18T16:46:04.440Z,12.70
2023-04-18T16:51:06.874Z,12.70
2023-04-18T16:56:09.039Z,12.60
2023-04-18T17:01:10.885Z,12.60
2023-04-18T17:06:12.724Z,12.50
2023-04-18T17:11:15.012Z,12.40
2023-04-18T17:16:17.824Z,12.40
2023-04-18T17:21:19.760Z,12.30
2023-04-18T17:26:25.701Z,12.40
2023-04-18T17:31:27.542Z,12.30
2023-04-18T17:36:29.501Z,12.30
2023-04-18T17:41:32.314Z,12.30
2023-04-18T17:46:34.607Z,12.30
2023-04-18T17:51:36.618Z,12.20
2023-04-18T17:56:38.433Z,12.10
2023-04-18T18:01:40.309Z,12.10
2023-04-18T18:06:42.480Z,12.10
2023-04-18T18:11:44.363Z,12.00
2023-04-18T18:16:46.430Z,12.00
2023-04-18T18:21:48.321Z,11.90
2023-04-18T18:26:51.684Z,11.90
2023-04-18T18:31:53.725Z,11.90
2023-04-18T18:36:59.149Z,11.80
2023-04-18T18:42:02.201Z,11.90
2023-04-18T18:47:04.421Z,11.90
2023-04-18T18:52:06.747Z,11.80
2023-04-18T18:57:09.265Z,11.80
2023-04-18T19:02:11.606Z,11.80
2023-04-18T19:07:13.613Z,11.80
2023-04-18T19:12:15.911Z,11.00
2023-04-18T19:17:19.305Z,11.70
2023-04-18T19:22:21.165Z,11.80
2023-04-18T19:27:23.132Z,11.80
2023-04-18T19:32:25.039Z,11.90
2023-04-18T19:37:26.950Z,11.90
2023-04-18T19:42:28.771Z,11.90
2023-04-18T19:47:33.796Z,11.90
2023-04-18T19:52:35.692Z,11.90
2023-04-18T19:57:42.092Z,11.90
2023-04-18T20:02:44.282Z,11.90
2023-04-18T20:07:46.292Z,11.80
2023-04-18T20:12:54.017Z,11.70
2023-04-18T20:17:55.944Z,11.70
2023-04-18T20:22:59.166Z,11.70
2023-04-18T20:28:01.235Z,11.60
2023-04-18T20:33:03.284Z,11.60
2023-04-18T20:38:07.405Z,11.50
2023-04-18T20:43:09.907Z,11.50
2023-04-18T20:48:12.598Z,11.40
2023-04-18T20:53:15.627Z,11.40
2023-04-18T20:58:17.518Z,11.30
2023-04-18T21:03:19.474Z,11.30
2023-04-18T21:08:21.377Z,11.20
2023-04-18T21:13:23.232Z,11.20
2023-04-18T21:18:25.226Z,11.10
2023-04-18T21:23:27.330Z,11.10
2023-04-18T21:28:30.448Z,11.10
2023-04-18T21:33:32.404Z,11.10
2023-04-18T21:38:34.234Z,11.00
2023-04-18T21:43:36.301Z,11.00
2023-04-18T21:48:40.538Z,11.00
2023-04-18T21:53:42.738Z,11.00
2023-04-18T21:58:44.646Z,11.00
2023-04-18T22:03:53.888Z,11.00
2023-04-18T22:08:55.821Z,11.00
2023-04-18T22:13:58.165Z,11.00
2023-04-18T22:19:01.187Z,11.00
2023-04-18T22:24:03.363Z,10.90
2023-04-18T22:29:05.184Z,10.90
2023-04-18T22:34:07.020Z,10.90
2023-04-18T22:39:09.057Z,10.80
2023-04-18T22:44:10.891Z,10.80
2023-04-18T22:49:13.078Z,10.80
2023-04-18T22:54:15.259Z,10.80
2023-04-18T22:59:17.461Z,10.70
2023-04-18T23:04:19.634Z,10.70
2023-04-18T23:09:22.062Z,10.60
2023-04-18T23:14:23.916Z,10.50
2023-04-18T23:19:25.864Z,10.50
2023-04-18T23:24:27.868Z,10.50
2023-04-18T23:29:29.730Z,10.40
2023-04-18T23:34:32.199Z,10.40
2023-04-18T23:39:34.043Z,10.40
2023-04-18T23:44:35.849Z,10.40
2023-04-18T23:49:38.115Z,10.40
2023-04-18T23:54:39.938Z,10.40
2023-04-18T23:59:41.778Z,10.40
